Kezdőlap
METAR-TAF:

METAR-TAF

Repülőterek :

Grant County Airport

Silver City, Új-Mexikó, Amerikai Egyesült Államok

földrajzi szélesség: 32-38N, földrajzi hosszúság: 108-09W, magasság: 1659 m

Jelenlegi meteorológiai megfigyelések

A jelentés 38 perccel ezelõtt készült, 05:15 UTC
Kelet-északkeleti szél 3 kt
Hőmérséklet 22°C
Páratartalom 69%
Légköri nyomás 1024 hPa
Látótávolság: 16.1 km
Szakadozott felhőzet 11000 lábon

METAR: KSVC 220515Z AUTO 06003KT 10SM BKN110 22/16 A3023 RMK AO2 T02220161

Idő: 23:53 (05:53 UTC)


TAF: hiányzik

Meteorológiai megfigyelések és előrejelzések több, mint 4000 repülőtéren (METAR és TAF jelentéseket).

A térképen piros és sárga pontok jelzik az elérhető meteorológiai állomásokat.

Mozgassa az egeret a pont fölött, hogy megjelenjen az állomás neve.

Azután kattintson az időjárási megfigyelések és előrejelzések megtekintéséhez.

A térkép megváltoztatása: kattintson a fekete keresztel jelölt zöld gombra ráközelítéshez, a vonallal jelölt zöld gombra távolításhoz, vagy a zöld nyilakra a szomszédos térképek eléréséhez.


METAR-TAF: